Historyczne dane pomiarowe

Dodano dane terminowe – wersja testowa.

Dane z okresu 1951-2019

Wersja bazy: 1.34 [2019-03-16, lista zmian], aktualizacja planowana na 2019-04-15

Dane meteo z obszaru Polski uzyskane na podstawie danych udostępnionych przez Instytut Meteorologii i Gospodarki Wodnej – Państwowy Instytut Badawczy.

 

Wybierz Datę:    

       

TemperaturaWilgotnośćWiatrCiśnienieOpadyŚniegCzas trwania zjawisk
 Stacja t tx tn tng RH VA  wxwx mslp ppp RRR   cm mm wxwxwxwxwxwxwx
1994-08-14 14.2 18.8 11.3 9.0 63.5- 1.7 5.3---- 0.0------------
1994-08-13 14.9 21.2 13.7 12.9 83.3- 8.0 5.0---- 0.2------------
1994-08-12 16.4 19.0 15.0 14.4 92.8- 7.3 2.7---- 1.6------------
1994-08-11 18.5 22.2 17.3 16.0 84.5- 7.7 0.0---- 10.0------------
1994-08-10 20.2 27.3 13.0 10.1 72.8- 0.0 2.3---- 0.1------------
1994-08-09 18.3 23.3 16.7 12.5 96.0- 6.3 1.7---- 13.2------------
1994-08-08 21.6 25.5 17.8 15.8 83.8- 7.0 1.3---- 48.7------------
1994-08-07 22.1 29.9 14.9 12.2 55.5- 2.7 2.0---- 0.8------------
1994-08-06 24.5 33.3 15.7 12.2 51.3- 0.7 3.0---- 0.0------------
1994-08-05 22.9 32.9 13.6 10.4 52.5- 0.0 3.3---- 0.0------------
1994-08-04 21.9 29.4 12.9 8.4 67.3- 0.0 1.0---- 0.0------------
1994-08-03 24.6 29.7 18.8 15.3 68.5- 0.7 3.7---- 0.0------------
1994-08-02 27.0 32.1 21.3 19.8 61.0- 2.7 2.7---- 0.0------------
1994-08-01 27.9 36.3 19.8 14.8 53.3- 0.3 2.7---- 0.0------------
1994-07-31 27.8 35.9 17.8 13.2 42.5- 0.0 3.7---- 0.0------------
1994-07-30 25.8 36.0 15.9 11.9 44.0- 0.0 2.0---- 0.0------------
1994-07-29 26.8 35.1 15.6 11.7 47.8- 0.3 1.0---- 0.0------------
1994-07-28 26.6 34.7 13.7 9.5 44.0- 0.0 1.0---- 0.0------------
1994-07-27 26.1 33.9 16.9 11.1 47.0- 0.7 1.7---- 0.0------------
1994-07-26 25.4 33.9 14.9 9.6 47.3- 0.0 0.7---- 0.0------------
1994-07-25 24.6 32.3 13.3 8.2 44.0- 0.0 2.0---- 0.0------------
1994-07-24 23.0 30.6 12.3 7.4 49.8- 1.3 1.7---- 0.0------------
1994-07-23 22.2 29.4 10.6 6.1 49.5- 1.0 2.0---- 0.0------------
1994-07-22 21.5 28.6 11.1 5.8 50.8- 0.0 3.0---- 0.0------------
1994-07-21 19.1 27.5 8.4 4.2 52.3- 0.0 1.7---- 0.0------------
1994-07-20 18.1 24.6 10.7 6.2 53.5- 0.3 3.0---- 0.0------------
1994-07-19 19.3 24.4 14.6 12.2 62.0- 3.7 3.7---- 0.0------------
1994-07-18 20.0 27.0 13.6 11.7 76.3- 0.0 2.0---- 0.0------------
1994-07-17 19.9 27.8 14.7 11.7 78.0- 3.3 3.0---- 1.1------------
1994-07-16 20.8 30.2 14.2 11.1 76.0- 2.7 3.0---- 4.4------------
1994-07-15 21.6 28.9 14.9 10.3 71.8- 0.3 3.3---- 0.0------------
1994-07-14 22.2 30.2 13.1 8.5 66.5- 0.0 2.0---- 0.0------------
1994-07-13 21.8 28.9 13.3 8.7 59.5- 0.3 2.7---- 0.0------------
1994-07-12 21.6 26.8 16.0 12.2 64.0- 1.0 3.0---- 0.0------------
1994-07-11 19.7 27.0 11.8 8.0 66.0- 3.7 3.7---- 0.0------------
1994-07-10 17.7 23.9 12.9 11.3 76.5- 4.7 3.0---- 0.0------------
1994-07-09 14.0 17.1 12.0 11.7 93.0- 7.3 2.0---- 4.0------------
1994-07-08 14.5 17.8 12.6 11.6 79.8- 5.7 5.0---- 16.3------------
1994-07-07 18.7 26.9 10.0 6.0 67.3- 4.7 2.0---- 5.7------------
1994-07-06 20.0 25.5 11.8 7.4 60.0- 3.7 2.0---- 0.0------------
1994-07-05 20.4 26.3 14.9 9.8 57.5- 5.7 1.0---- 0.0------------
1994-07-04 21.7 30.2 11.5 5.8 52.8- 0.0 2.7---- 0.0------------
1994-07-03 20.1 28.3 10.6 4.8 51.3- 0.0 2.0---- 0.0------------
1994-07-02 18.1 25.3 7.7 3.8 60.3- 0.0 1.0---- 0.0------------
1994-07-01 17.9 24.0 10.6 5.2 66.8- 0.0 3.7---- 0.0------------
1994-06-30 19.4 28.7 17.3 13.2 84.0- 6.3 3.3---- 12.4------------
1994-06-29 25.9 32.2 17.4 13.0 64.5- 1.0 2.3---- 0.0------------
1994-06-28 26.0 31.2 18.4 13.3 59.8- 2.3 2.7---- 0.0------------
1994-06-27 25.3 32.6 17.4 12.4 63.8- 0.7 2.7---- 0.0------------
1994-06-26 21.3 30.0 9.4 3.2 58.3- 1.0 4.3---- 0.0------------
1994-06-25 16.0 24.3 3.7 -1.6 57.0- 0.0 2.7---- 0.0------------
1994-06-24 14.0 20.4 6.0 -0.8 55.8- 0.0 4.3---- 0.0------------
1994-06-23 17.1 20.1 13.5 10.9 62.0- 0.7 7.0---- 0.0------------
1994-06-22 17.7 25.8 9.8 5.3 72.8- 5.0 3.3---- 0.4------------
1994-06-21 14.8 21.8 5.5 0.1 69.8- 0.7 1.3---- 0.0------------
1994-06-20 16.1 21.6 10.4 5.2 71.8- 4.0 4.3---- 0.0------------
1994-06-19 17.4 24.7 11.4 10.6 72.8- 4.0 5.0---- 0.0------------
1994-06-18 10.8 18.4 2.3 -1.6 76.0- 5.7 3.0---- 4.5------------
1994-06-17 10.0 14.4 7.7 6.6 77.0- 4.7 5.7---- 0.0------------
1994-06-16 10.0 14.2 6.3 1.5 81.0- 8.0 2.7---- 4.4------------
295.6 ms

 

Źródłem pochodzenia danych jest Instytut Meteorologii i Gospodarki Wodnej – Państwowy Instytut Badawczy. Dane Instytutu Meteorologii i Gospodarki Wodnej – Państwowego Instytutu Badawczego zostały przetworzone.

Dane źródłowe można odnaleźć na stronie https://dane.imgw.pl